BVX weather

Batesville Regional Airport
Batesville, Arkansas, United States

Public forecast

Using degrees Fahrenheit for public forecast. Weather courtesy of forecast.io.

METAR (pilot weather report)

Retrieved 2019/06/20 08:56 UTC (21 minutes ago):

KBVX 200856Z AUTO 22004KT 10SM -RA SCT044 OVC060 22/19 A2973 RMK AO2 LTG DSNT SE RAB52 SLP062 6//// T02220194 50006 PNO $

TAF (pilot weather forecast)

Closest forecast is Jonesboro Municipal Airport, 49.2 nm (91.0 km) E. Retrieved 2019/06/20 06:45 UTC (3 hours ago):

TAF KJBR 200542Z 2006/2106 25005KT P6SM BKN060 FM201800 26008KT P6SM BKN040 FM210000 20003KT P6SM SCT040